createdAt,value
2023-01-13T00:01:30.525Z,0.90
2023-01-13T00:04:05.219Z,1.30
2023-01-13T00:06:39.390Z,1.40
2023-01-13T00:09:13.339Z,1.20
2023-01-13T00:11:47.758Z,1.70
2023-01-13T00:14:21.900Z,1.20
2023-01-13T00:16:55.786Z,1.20
2023-01-13T00:19:29.794Z,1.10
2023-01-13T00:22:03.728Z,1.10
2023-01-13T00:24:37.962Z,1.10
2023-01-13T00:27:11.987Z,1.20
2023-01-13T00:29:45.972Z,1.10
2023-01-13T00:32:19.801Z,1.60
2023-01-13T00:34:53.653Z,1.30
2023-01-13T00:37:28.232Z,1.30
2023-01-13T00:40:01.982Z,1.00
2023-01-13T00:42:49.593Z,1.20
2023-01-13T00:45:23.275Z,1.10
2023-01-13T00:47:57.324Z,1.30
2023-01-13T00:50:31.379Z,1.40
2023-01-13T00:53:05.485Z,1.60
2023-01-13T00:55:39.472Z,1.90
2023-01-13T00:58:13.290Z,1.40
2023-01-13T01:00:47.721Z,1.60
2023-01-13T01:03:21.948Z,1.50
2023-01-13T01:05:55.908Z,1.70
2023-01-13T01:08:30.439Z,1.50
2023-01-13T01:11:11.286Z,1.30
2023-01-13T01:13:45.912Z,1.90
2023-01-13T01:16:22.792Z,1.30
2023-01-13T01:18:58.365Z,1.40
2023-01-13T01:21:33.533Z,1.10
2023-01-13T01:24:10.532Z,1.50
2023-01-13T01:26:44.437Z,1.30
2023-01-13T01:29:18.915Z,1.50
2023-01-13T01:31:53.022Z,1.70
2023-01-13T01:34:27.041Z,1.30
2023-01-13T01:37:00.893Z,1.30
2023-01-13T01:39:34.794Z,1.20
2023-01-13T01:42:32.132Z,1.20
2023-01-13T01:45:18.393Z,1.60
2023-01-13T01:47:56.713Z,1.30
2023-01-13T01:50:32.927Z,1.10
2023-01-13T01:53:15.696Z,1.60
2023-01-13T01:55:49.936Z,1.70
2023-01-13T01:58:30.367Z,1.10
2023-01-13T02:01:05.022Z,1.10
2023-01-13T02:03:45.481Z,1.20
2023-01-13T02:06:21.609Z,1.20
2023-01-13T02:08:57.046Z,1.30
2023-01-13T02:11:54.627Z,1.50
2023-01-13T02:14:31.499Z,1.20
2023-01-13T02:17:28.496Z,1.10
2023-01-13T02:20:45.874Z,1.30
2023-01-13T02:24:13.383Z,1.40
2023-01-13T02:27:30.691Z,1.20
2023-01-13T02:30:37.048Z,1.40
2023-01-13T02:35:05.125Z,1.10
2023-01-13T02:37:44.600Z,1.10
2023-01-13T02:40:25.502Z,1.10
2023-01-13T02:43:25.325Z,0.90
2023-01-13T02:46:09.463Z,0.90
2023-01-13T02:48:47.152Z,1.10
2023-01-13T02:51:27.749Z,1.00
2023-01-13T02:54:09.350Z,0.80
2023-01-13T02:56:47.561Z,1.20
2023-01-13T02:59:26.244Z,1.40
2023-01-13T03:02:03.537Z,2.70
2023-01-13T03:04:55.315Z,2.30
2023-01-13T03:08:03.861Z,1.20
2023-01-13T03:11:03.165Z,1.00
2023-01-13T03:14:02.229Z,1.30
2023-01-13T03:16:50.620Z,1.00
2023-01-13T03:19:39.961Z,0.90
2023-01-13T03:22:25.718Z,1.10
2023-01-13T03:25:08.385Z,0.80
2023-01-13T03:27:54.363Z,1.00
2023-01-13T03:30:34.828Z,1.20
2023-01-13T03:33:17.204Z,1.00
2023-01-13T03:35:57.276Z,1.00
2023-01-13T03:38:37.345Z,0.90
2023-01-13T03:41:17.032Z,1.00
2023-01-13T03:44:30.340Z,1.00
2023-01-13T03:47:19.249Z,0.80
2023-01-13T03:50:01.989Z,0.80
2023-01-13T03:52:41.606Z,0.90
2023-01-13T03:55:20.397Z,1.30
2023-01-13T03:58:03.005Z,1.30
2023-01-13T04:00:43.914Z,1.40
2023-01-13T04:03:26.028Z,1.20
2023-01-13T04:06:16.023Z,0.80
2023-01-13T04:08:58.756Z,0.80
2023-01-13T04:11:40.834Z,0.90
2023-01-13T04:14:21.024Z,0.90
2023-01-13T04:16:56.017Z,0.70
2023-01-13T04:19:30.044Z,0.80
2023-01-13T04:22:03.924Z,0.90
2023-01-13T04:24:38.263Z,0.70
2023-01-13T04:27:12.173Z,0.70
2023-01-13T04:29:46.043Z,0.70
2023-01-13T04:32:20.254Z,0.80
2023-01-13T04:34:54.296Z,0.90
2023-01-13T04:37:28.587Z,0.80
2023-01-13T04:40:02.380Z,0.80
2023-01-13T04:42:36.452Z,1.20
2023-01-13T04:45:13.352Z,1.00
2023-01-13T04:47:48.613Z,0.80
2023-01-13T04:50:23.129Z,0.70
2023-01-13T04:52:58.325Z,0.70
2023-01-13T04:55:32.937Z,0.70
2023-01-13T04:58:11.926Z,0.70
2023-01-13T05:00:46.359Z,0.70
2023-01-13T05:03:20.212Z,0.70
2023-01-13T05:05:57.015Z,0.60
2023-01-13T05:08:31.049Z,0.80
2023-01-13T05:11:25.965Z,1.00
2023-01-13T05:14:17.827Z,0.90
2023-01-13T05:17:03.705Z,0.80
2023-01-13T05:20:30.421Z,0.80
2023-01-13T05:23:22.371Z,0.80
2023-01-13T05:25:56.289Z,0.70
2023-01-13T05:28:34.526Z,0.80
2023-01-13T05:31:08.861Z,0.80
2023-01-13T05:33:42.601Z,0.80
2023-01-13T05:36:16.470Z,0.80
2023-01-13T05:38:52.372Z,0.70
2023-01-13T05:41:43.394Z,0.80
2023-01-13T05:44:17.323Z,1.00
2023-01-13T05:46:51.445Z,0.90
2023-01-13T05:49:25.477Z,1.00
2023-01-13T05:51:59.417Z,1.00
2023-01-13T05:54:33.334Z,1.30
2023-01-13T05:57:07.595Z,1.20
2023-01-13T05:59:41.569Z,1.10
2023-01-13T06:02:15.725Z,0.90
2023-01-13T06:04:50.704Z,1.00
2023-01-13T06:07:24.650Z,1.30
2023-01-13T06:09:58.731Z,0.80
2023-01-13T06:12:32.728Z,1.00
2023-01-13T06:15:09.140Z,1.10
2023-01-13T06:17:43.109Z,0.80
2023-01-13T06:20:18.877Z,1.10
2023-01-13T06:22:55.843Z,1.20
2023-01-13T06:25:42.737Z,1.50
2023-01-13T06:28:16.543Z,1.70
2023-01-13T06:30:56.487Z,1.40
2023-01-13T06:33:34.782Z,1.40
2023-01-13T06:36:16.025Z,1.30
2023-01-13T06:38:55.824Z,1.40
2023-01-13T06:41:50.959Z,1.00
2023-01-13T06:44:26.634Z,1.20
2023-01-13T06:47:01.058Z,1.00
2023-01-13T06:49:35.429Z,0.90
2023-01-13T06:52:10.021Z,0.90
2023-01-13T06:54:43.868Z,1.10
2023-01-13T06:57:18.157Z,0.80
2023-01-13T06:59:52.355Z,0.90
2023-01-13T07:02:28.050Z,1.10
2023-01-13T07:05:04.431Z,1.00
2023-01-13T07:07:38.851Z,0.80
2023-01-13T07:10:22.369Z,0.80
2023-01-13T07:13:13.836Z,1.10
2023-01-13T07:15:58.541Z,0.80
2023-01-13T07:18:35.036Z,0.70
2023-01-13T07:21:13.740Z,0.90
2023-01-13T07:23:48.251Z,1.00
2023-01-13T07:26:22.194Z,0.70
2023-01-13T07:28:56.019Z,0.70
2023-01-13T07:31:30.190Z,0.60
2023-01-13T07:34:06.956Z,0.50
2023-01-13T07:36:41.538Z,0.60
2023-01-13T07:39:15.518Z,0.70
2023-01-13T07:42:07.663Z,0.60
2023-01-13T07:44:42.015Z,0.60
2023-01-13T07:47:16.236Z,0.60
2023-01-13T07:49:50.789Z,0.50
2023-01-13T07:52:24.650Z,0.50
2023-01-13T07:54:58.947Z,1.00
2023-01-13T07:57:33.337Z,0.60
2023-01-13T08:00:13.484Z,0.60
2023-01-13T08:02:47.425Z,0.70
2023-01-13T08:05:21.692Z,0.70
2023-01-13T08:07:55.937Z,0.60
2023-01-13T08:10:30.115Z,0.80
2023-01-13T08:13:21.636Z,0.60
2023-01-13T08:16:00.501Z,0.50
2023-01-13T08:18:36.108Z,0.70
2023-01-13T08:21:12.840Z,0.70
2023-01-13T08:23:47.913Z,0.90
2023-01-13T08:26:22.585Z,1.00
2023-01-13T08:28:56.531Z,1.00
2023-01-13T08:31:30.522Z,0.80
2023-01-13T08:34:04.881Z,0.90
2023-01-13T08:36:38.737Z,0.80
2023-01-13T08:39:12.950Z,0.80
2023-01-13T08:41:58.879Z,0.80
2023-01-13T08:44:34.803Z,0.70
2023-01-13T08:47:09.022Z,0.90
2023-01-13T08:49:43.215Z,0.80
2023-01-13T08:52:17.937Z,0.80
2023-01-13T08:54:52.319Z,0.90
2023-01-13T08:57:26.609Z,0.90
2023-01-13T09:00:00.855Z,0.80
2023-01-13T09:02:35.315Z,0.90
2023-01-13T09:05:11.247Z,0.80
2023-01-13T09:07:45.963Z,0.70
2023-01-13T09:10:20.243Z,0.90
2023-01-13T09:13:12.593Z,1.00
2023-01-13T09:15:49.111Z,0.90
2023-01-13T09:18:23.572Z,0.60
2023-01-13T09:20:57.647Z,0.50
2023-01-13T09:23:34.081Z,0.70
2023-01-13T09:26:09.713Z,0.70
2023-01-13T09:28:44.028Z,0.70
2023-01-13T09:31:18.771Z,1.10
2023-01-13T09:34:11.229Z,0.90
2023-01-13T09:36:46.033Z,0.60
2023-01-13T09:39:22.919Z,0.90
2023-01-13T09:42:21.702Z,1.10
2023-01-13T09:45:13.203Z,0.80
2023-01-13T09:47:58.761Z,1.20
2023-01-13T09:51:07.447Z,1.60
2023-01-13T09:53:51.844Z,1.10
2023-01-13T09:56:27.486Z,1.10
2023-01-13T09:59:02.322Z,1.10
2023-01-13T10:01:49.342Z,1.20
2023-01-13T10:04:23.685Z,1.20
2023-01-13T10:07:03.739Z,1.00
2023-01-13T10:09:53.805Z,1.10
2023-01-13T10:12:51.772Z,1.30
2023-01-13T10:15:28.234Z,1.30
2023-01-13T10:18:12.685Z,1.10
2023-01-13T10:20:58.984Z,1.00
2023-01-13T10:23:55.555Z,0.90
2023-01-13T10:26:56.370Z,1.30
2023-01-13T10:29:32.883Z,1.00
2023-01-13T10:32:08.442Z,1.20
2023-01-13T10:34:57.204Z,1.00
2023-01-13T10:37:32.327Z,1.00
2023-01-13T10:40:18.829Z,1.10
2023-01-13T10:43:09.086Z,1.00
2023-01-13T10:45:45.107Z,1.00
2023-01-13T10:48:20.487Z,1.50
2023-01-13T10:50:56.378Z,1.40
2023-01-13T10:53:45.940Z,1.00
2023-01-13T10:56:25.309Z,1.00
2023-01-13T10:59:18.632Z,1.30
2023-01-13T11:02:23.492Z,1.00
2023-01-13T11:05:19.960Z,1.10
2023-01-13T11:07:58.104Z,1.10
2023-01-13T11:10:34.923Z,1.40
2023-01-13T11:13:16.821Z,1.30
2023-01-13T11:15:57.203Z,1.00
2023-01-13T11:18:51.684Z,1.50
2023-01-13T11:21:36.237Z,0.90
2023-01-13T11:24:28.367Z,1.10
2023-01-13T11:27:08.487Z,1.10
2023-01-13T11:29:55.256Z,0.90
2023-01-13T11:32:34.747Z,1.20
2023-01-13T11:35:22.438Z,0.90
2023-01-13T11:38:05.572Z,1.20
2023-01-13T11:40:45.026Z,1.40
2023-01-13T11:43:33.178Z,1.20
2023-01-13T11:46:10.994Z,1.10
2023-01-13T11:48:47.350Z,1.30
2023-01-13T11:51:34.724Z,1.10
2023-01-13T11:54:56.477Z,1.30
2023-01-13T11:58:25.951Z,1.00
2023-01-13T12:01:28.866Z,1.00
2023-01-13T12:04:28.720Z,0.90
2023-01-13T12:07:22.866Z,1.20
2023-01-13T12:10:13.102Z,1.10
2023-01-13T12:13:01.952Z,1.00
2023-01-13T12:16:02.577Z,1.10
2023-01-13T12:19:01.490Z,1.20
2023-01-13T12:21:44.023Z,1.20
2023-01-13T12:24:28.013Z,1.00
2023-01-13T12:27:08.077Z,1.40
2023-01-13T12:29:44.687Z,1.00
2023-01-13T12:32:34.967Z,1.20
2023-01-13T12:35:34.705Z,1.00
2023-01-13T12:38:18.053Z,1.10
2023-01-13T12:41:06.271Z,1.30
2023-01-13T12:44:03.134Z,1.00
2023-01-13T12:46:57.570Z,1.30
2023-01-13T12:49:36.838Z,1.10
2023-01-13T12:52:20.543Z,1.10
2023-01-13T12:55:20.999Z,1.50
2023-01-13T12:58:15.862Z,1.00
2023-01-13T13:01:12.160Z,1.30
2023-01-13T13:04:10.779Z,1.30
2023-01-13T13:06:52.635Z,0.90
2023-01-13T13:09:34.989Z,1.10
2023-01-13T13:13:14.352Z,1.20
2023-01-13T13:15:53.113Z,1.20
2023-01-13T13:18:34.923Z,1.50
2023-01-13T13:21:14.382Z,1.10
2023-01-13T13:24:12.193Z,1.60
2023-01-13T13:26:47.587Z,2.10
2023-01-13T13:29:44.178Z,2.40
2023-01-13T13:32:59.052Z,2.00
2023-01-13T13:36:06.602Z,1.60
2023-01-13T13:39:22.395Z,1.40
2023-01-13T13:42:29.265Z,1.40
2023-01-13T13:45:33.036Z,1.30
2023-01-13T13:48:25.207Z,1.40
2023-01-13T13:51:04.107Z,1.40
2023-01-13T13:53:44.017Z,1.20
2023-01-13T13:56:26.033Z,1.20
2023-01-13T13:59:00.374Z,1.30
2023-01-13T14:01:47.445Z,1.40
2023-01-13T14:04:26.518Z,1.30
2023-01-13T14:07:05.762Z,2.60
2023-01-13T14:09:48.671Z,2.60
2023-01-13T14:12:27.351Z,2.00
2023-01-13T14:15:01.662Z,2.30
2023-01-13T14:17:37.716Z,1.90
2023-01-13T14:20:21.878Z,1.80
2023-01-13T14:23:01.775Z,1.30
2023-01-13T14:25:40.692Z,1.60
2023-01-13T14:28:28.616Z,1.60
2023-01-13T14:31:06.068Z,1.60
2023-01-13T14:33:46.155Z,1.00
2023-01-13T14:36:36.877Z,0.90
2023-01-13T14:39:39.034Z,0.90
2023-01-13T14:42:19.287Z,0.80
2023-01-13T14:44:56.349Z,0.90
2023-01-13T14:47:34.156Z,0.70
2023-01-13T14:50:22.175Z,1.00
2023-01-13T14:53:00.853Z,0.90
2023-01-13T15:01:46.398Z,1.00
2023-01-13T15:04:34.020Z,0.90
2023-01-13T15:07:24.381Z,1.00
2023-01-13T15:10:02.720Z,1.00
2023-01-13T15:12:41.383Z,1.20
2023-01-13T15:15:32.916Z,1.10
2023-01-13T15:18:17.092Z,0.90
2023-01-13T15:20:53.155Z,1.10
2023-01-13T15:23:27.738Z,1.10
2023-01-13T15:26:04.937Z,1.00
2023-01-13T15:28:40.993Z,1.30
2023-01-13T15:31:18.183Z,1.30
2023-01-13T15:33:53.064Z,1.30
2023-01-13T15:36:38.235Z,1.60
2023-01-13T15:39:17.621Z,1.50
2023-01-13T15:42:09.439Z,1.90
2023-01-13T15:45:04.981Z,1.90
2023-01-13T15:47:39.583Z,1.70
2023-01-13T15:50:23.083Z,2.30
2023-01-13T15:52:57.256Z,2.30
2023-01-13T15:55:31.624Z,2.40
2023-01-13T15:58:07.360Z,2.30
2023-01-13T16:00:42.413Z,2.20
2023-01-13T16:03:25.775Z,2.10
2023-01-13T16:06:00.687Z,2.70
2023-01-13T16:08:35.162Z,2.40
2023-01-13T16:11:11.009Z,2.60
2023-01-13T16:13:45.508Z,2.10
2023-01-13T16:16:26.310Z,1.90
2023-01-13T16:19:01.514Z,2.50
2023-01-13T16:21:36.705Z,2.30
2023-01-13T16:24:13.240Z,2.00
2023-01-13T16:26:47.830Z,2.00
2023-01-13T16:29:22.497Z,2.30
2023-01-13T16:31:57.546Z,2.70
2023-01-13T16:34:40.988Z,2.60
2023-01-13T16:37:26.380Z,2.50
2023-01-13T16:40:05.037Z,2.70
2023-01-13T16:42:44.381Z,2.40
2023-01-13T16:45:18.902Z,2.90
2023-01-13T16:47:53.567Z,2.70
2023-01-13T16:50:39.708Z,2.70
2023-01-13T16:53:14.666Z,2.30
2023-01-13T16:55:49.169Z,2.00
2023-01-13T16:58:24.377Z,2.70
2023-01-13T17:00:58.528Z,3.00
2023-01-13T17:03:36.072Z,2.50
2023-01-13T17:06:12.968Z,2.30
2023-01-13T17:08:47.083Z,2.60
2023-01-13T17:11:21.462Z,3.10
2023-01-13T17:13:55.303Z,3.00
2023-01-13T17:16:29.378Z,2.80
2023-01-13T17:19:03.507Z,2.60
2023-01-13T17:21:37.556Z,2.70
2023-01-13T17:24:13.361Z,2.70
2023-01-13T17:26:49.833Z,2.50
2023-01-13T17:29:27.777Z,3.60
2023-01-13T17:32:02.926Z,2.80
2023-01-13T17:34:37.221Z,3.20
2023-01-13T17:37:14.667Z,3.60
2023-01-13T17:39:51.125Z,3.50
2023-01-13T17:42:28.050Z,3.70
2023-01-13T17:45:01.892Z,4.00
2023-01-13T17:47:36.018Z,4.00
2023-01-13T17:50:11.993Z,4.00
2023-01-13T17:52:45.971Z,4.70
2023-01-13T17:55:20.191Z,5.50
2023-01-13T17:57:54.577Z,5.00
2023-01-13T18:00:29.771Z,4.70
2023-01-13T18:03:03.816Z,5.60
2023-01-13T18:05:39.507Z,6.50
2023-01-13T18:08:13.968Z,6.30
2023-01-13T18:10:52.176Z,6.00
2023-01-13T18:13:26.312Z,5.70
2023-01-13T18:16:14.549Z,5.40
2023-01-13T18:18:51.893Z,4.60
2023-01-13T18:21:45.926Z,5.00
2023-01-13T18:24:38.037Z,7.10
2023-01-13T18:27:22.743Z,6.10
2023-01-13T18:29:59.331Z,6.00
2023-01-13T18:32:35.075Z,11.50
2023-01-13T18:35:12.617Z,15.50
2023-01-13T18:37:46.958Z,14.70
2023-01-13T18:40:20.735Z,9.80
2023-01-13T18:42:59.252Z,10.10
2023-01-13T18:45:34.300Z,9.80
2023-01-13T18:48:09.590Z,9.50
2023-01-13T18:50:43.763Z,11.50
2023-01-13T18:53:17.648Z,10.30
2023-01-13T18:55:52.019Z,6.10
2023-01-13T18:58:27.741Z,6.10
2023-01-13T19:01:07.038Z,5.30
2023-01-13T19:03:41.325Z,5.20
2023-01-13T19:06:15.845Z,4.90
2023-01-13T19:08:53.427Z,4.20
2023-01-13T19:11:30.367Z,3.80
2023-01-13T19:14:05.012Z,3.80
2023-01-13T19:16:39.495Z,4.20
2023-01-13T19:19:13.399Z,5.10
2023-01-13T19:21:48.580Z,5.70
2023-01-13T19:24:23.028Z,5.40
2023-01-13T19:26:57.316Z,6.50
2023-01-13T19:29:33.128Z,5.00
2023-01-13T19:32:08.587Z,5.00
2023-01-13T19:34:43.454Z,4.30
2023-01-13T19:37:18.643Z,3.60
2023-01-13T19:39:52.786Z,3.20
2023-01-13T19:42:44.618Z,2.90
2023-01-13T19:45:30.805Z,3.40
2023-01-13T19:48:07.405Z,3.90
2023-01-13T19:50:43.276Z,3.40
2023-01-13T19:53:20.572Z,3.80
2023-01-13T19:55:55.298Z,3.90
2023-01-13T19:58:30.362Z,4.30
2023-01-13T20:01:09.885Z,4.30
2023-01-13T20:03:46.051Z,4.90
2023-01-13T20:06:21.593Z,6.00
2023-01-13T20:08:56.173Z,6.40
2023-01-13T20:11:33.330Z,7.10
2023-01-13T20:14:07.470Z,6.50
2023-01-13T20:16:41.691Z,7.10
2023-01-13T20:19:15.827Z,7.60
2023-01-13T20:21:50.455Z,7.60
2023-01-13T20:24:26.115Z,7.20
2023-01-13T20:27:01.194Z,6.70
2023-01-13T20:29:36.692Z,6.40
2023-01-13T20:32:11.109Z,6.10
2023-01-13T20:34:45.412Z,6.40
2023-01-13T20:37:20.021Z,6.60
2023-01-13T20:39:54.725Z,5.80
2023-01-13T20:42:39.697Z,6.60
2023-01-13T20:45:17.670Z,6.40
2023-01-13T20:47:52.888Z,6.90
2023-01-13T20:50:27.205Z,7.40
2023-01-13T20:53:01.133Z,7.10
2023-01-13T20:55:34.960Z,6.60
2023-01-13T20:58:08.964Z,6.60
2023-01-13T21:00:42.839Z,7.10
2023-01-13T21:03:16.667Z,7.10
2023-01-13T21:05:50.560Z,8.40
2023-01-13T21:08:24.365Z,7.70
2023-01-13T21:11:05.811Z,6.90
2023-01-13T21:13:57.398Z,7.20
2023-01-13T21:16:31.797Z,6.70
2023-01-13T21:19:10.573Z,5.30
2023-01-13T21:21:44.626Z,6.10
2023-01-13T21:24:18.640Z,3.40
2023-01-13T21:26:56.193Z,3.90
2023-01-13T21:29:30.408Z,4.70
2023-01-13T21:32:04.688Z,3.00
2023-01-13T21:34:38.637Z,2.80
2023-01-13T21:37:12.535Z,3.40
2023-01-13T21:39:47.106Z,2.30
2023-01-13T21:42:39.226Z,3.20
2023-01-13T21:45:32.663Z,3.40
2023-01-13T21:48:07.387Z,2.90
2023-01-13T21:50:42.348Z,3.50
2023-01-13T21:53:17.214Z,3.20
2023-01-13T21:55:56.141Z,3.00
2023-01-13T21:58:30.792Z,2.50
2023-01-13T22:01:06.818Z,2.90
2023-01-13T22:03:58.923Z,3.30
2023-01-13T22:06:33.296Z,3.30
2023-01-13T22:09:08.894Z,2.70
2023-01-13T22:11:43.482Z,2.10
2023-01-13T22:14:17.464Z,2.00
2023-01-13T22:16:52.974Z,2.50
2023-01-13T22:19:28.780Z,2.60
2023-01-13T22:22:02.718Z,3.10
2023-01-13T22:24:43.390Z,2.90
2023-01-13T22:27:20.551Z,2.90
2023-01-13T22:29:56.305Z,3.70
2023-01-13T22:32:30.474Z,3.30
2023-01-13T22:35:04.753Z,3.80
2023-01-13T22:37:39.169Z,2.20
2023-01-13T22:40:16.123Z,2.00
2023-01-13T22:42:50.305Z,2.40
2023-01-13T22:45:24.805Z,2.00
2023-01-13T22:47:59.557Z,2.40
2023-01-13T22:50:34.089Z,2.10
2023-01-13T22:53:08.032Z,1.90
2023-01-13T22:55:42.960Z,1.90
2023-01-13T22:58:17.652Z,1.70
2023-01-13T23:00:52.107Z,2.10
2023-01-13T23:03:26.907Z,2.40
2023-01-13T23:06:04.006Z,2.20
2023-01-13T23:08:38.865Z,2.20
2023-01-13T23:11:17.598Z,2.20
2023-01-13T23:13:51.731Z,2.20
2023-01-13T23:16:25.961Z,2.90
2023-01-13T23:18:59.921Z,2.50
2023-01-13T23:21:36.863Z,2.30
2023-01-13T23:24:12.948Z,1.80
2023-01-13T23:26:47.255Z,1.50
2023-01-13T23:29:22.483Z,1.40
2023-01-13T23:31:56.644Z,1.90
2023-01-13T23:34:30.608Z,1.40
2023-01-13T23:37:04.679Z,1.20
2023-01-13T23:39:38.763Z,1.30
2023-01-13T23:42:14.019Z,1.50
2023-01-13T23:44:48.172Z,1.40
2023-01-13T23:47:22.354Z,1.60
2023-01-13T23:49:56.189Z,1.70
2023-01-13T23:52:30.230Z,1.20
2023-01-13T23:55:04.122Z,1.30
2023-01-13T23:57:38.319Z,1.30
